Aérodrome :
LOGIN :

S'inscrire | Disclaimer

   EN    FR    IT 

 










Légende :    VFR   VFR Marginal   IFR   IFR Intensif   IFR Très Intensif
Visi : 
Plafond : 
>= 8 km
>= 3000ft
5 à 8 km
1000 à 3000 ft
1500m à 5 km
500 à 1000 ft
800 à 1500m
200 à 500 ft
< 800m
< 200 ft
Symboles :   Orages  Brouillard  Fortes neiges  Fortes précipitations  Vent > 20 kt
SIGMETs :   Divers  Orages  Givrage  Turbulence  Onde Orograph.  Cendres Volcan.






- Altitude de l'aérodrome : 74 ft
- Code IATA : NDZ


ETMN - Cuxhaven Nordholz Sea AB

DERNIER METAR :
  • 150654Z 19014G24KT 9999 BKN012 OVC018 05/04 Q0986 GRN

METARs EXPIRÉS :
  • 150620Z 18013KT 9000 -RADZ SCT007 OVC037 04/03 Q0987 RERA BLU
  • 150607Z 18012KT 8000 -RA BKN008 OVC015 04/03 Q0987 RERA GRN
  • 150540Z 18015KT 7000 RA BKN020 OVC033 04/02 Q0988 WHT
  • 150520Z 18014KT 9999 FEW027 OVC040 05/01 Q0987 BLU
  • 150420Z 17013KT 9999 BKN060 BKN110 04/01 Q0989 BLU

Prévision TAF périmée.



MET'MAP, la Météo Aéronautique d'un coup d'oeil ! - Copyright ORBIFLY Décembre 2007 - Disclaimer

ORBIFLY MET'MAP TEAM :

Programmation & Développement : Alexandra Zaïnal
Sur une idée originale de : Baudouin d'Aumeries
Assistance à la programmation : Marc-Olivier Méhu
Soutien technique & logistique : Manuel Goepfert

Contact : metmap@orbifly.com




SOURCES & CREDITS :

   NOAA